Time;durP1;ratioP1;P1;durP2;ratioP2;P2;SDS_P1;SDS_P2;PMS_P1;PMS_P2;Temp;Humidity;BMP_temperature;BMP_pressure;BME280_temperature;BME280_humidity;BME280_pressure;Samples;Min_cycle;Max_cycle;Signal;HPM_P1;HPM_P2
2022/03/25 00:01:41;;;;;;;19.67;13.10;;;12.10;89.10;;;;;;5095598;28;20059;-80
2022/03/25 00:04:07;;;;;;;21.88;14.02;;;12.10;89.10;;;;;;5095556;28;20077;-81
2022/03/25 00:06:33;;;;;;;22.77;14.98;;;12.10;89.10;;;;;;5077378;28;20093;-80
2022/03/25 00:09:00;;;;;;;20.83;13.82;;;12.10;89.20;;;;;;5077289;28;20028;-80
2022/03/25 00:11:25;;;;;;;21.92;14.77;;;12.10;89.20;;;;;;5077171;28;20028;-80
2022/03/25 00:13:51;;;;;;;21.02;13.75;;;12.10;89.20;;;;;;5077187;28;20486;-80
2022/03/25 00:16:17;;;;;;;20.27;13.48;;;12.00;89.20;;;;;;5077253;28;20031;-80
2022/03/25 00:18:42;;;;;;;19.90;14.13;;;12.10;89.30;;;;;;5077053;28;20428;-80
2022/03/25 00:21:08;;;;;;;21.40;13.73;;;12.00;89.20;;;;;;5095007;28;20411;-80
2022/03/25 00:23:35;;;;;;;20.27;14.27;;;12.00;89.30;;;;;;5077468;28;20458;-80
2022/03/25 00:26:01;;;;;;;23.65;13.75;;;12.00;89.40;;;;;;5076999;28;20032;-80
2022/03/25 00:28:28;;;;;;;22.35;13.88;;;12.00;89.40;;;;;;5095103;28;20032;-80
2022/03/25 00:30:54;;;;;;;24.17;14.07;;;12.00;89.40;;;;;;5077046;28;20028;-80
2022/03/25 00:33:20;;;;;;;22.10;13.98;;;12.00;89.40;;;;;;5076758;28;20119;-80
2022/03/25 00:35:46;;;;;;;18.70;12.85;;;11.90;89.40;;;;;;5094933;28;20435;-80
2022/03/25 00:38:12;;;;;;;22.95;14.80;;;11.90;89.40;;;;;;5076803;28;20032;-80
2022/03/25 00:40:37;;;;;;;19.65;13.35;;;11.90;89.50;;;;;;5076679;28;20432;-80
2022/03/25 00:43:03;;;;;;;21.02;14.10;;;11.90;89.50;;;;;;5076660;28;20020;-80
2022/03/25 00:45:29;;;;;;;20.92;13.32;;;11.90;89.50;;;;;;5094741;28;20020;-80
2022/03/25 00:47:59;;;;;;;20.17;13.43;;;11.90;89.50;;;;;;5094704;28;20055;-80
2022/03/25 00:50:27;;;;;;;24.00;14.27;;;11.90;89.50;;;;;;5076449;28;20016;-80
2022/03/25 00:52:53;;;;;;;19.10;13.60;;;11.80;89.50;;;;;;5076316;28;20494;-80
2022/03/25 00:55:19;;;;;;;19.80;13.27;;;11.80;89.60;;;;;;5094584;28;20035;-80
2022/03/25 00:57:45;;;;;;;20.55;12.88;;;11.90;89.70;;;;;;5094544;28;20020;-80
2022/03/25 01:00:11;;;;;;;21.08;13.65;;;11.80;90.10;;;;;;5094440;28;20383;-80
2022/03/25 01:02:38;;;;;;;18.00;13.18;;;11.80;89.60;;;;;;5076344;28;20403;-80
2022/03/25 01:05:05;;;;;;;18.63;13.15;;;11.80;89.70;;;;;;5076184;28;20137;-80
2022/03/25 01:07:30;;;;;;;19.98;13.40;;;11.80;89.70;;;;;;5076118;28;20081;-80
2022/03/25 01:09:56;;;;;;;17.85;12.38;;;11.80;89.80;;;;;;5094352;28;20028;-80
2022/03/25 01:12:22;;;;;;;18.58;12.82;;;11.80;89.80;;;;;;5094183;28;20052;-80
2022/03/25 01:14:48;;;;;;;22.15;13.50;;;11.70;89.80;;;;;;5094214;28;20024;-80
2022/03/25 01:17:16;;;;;;;21.13;13.68;;;11.70;89.80;;;;;;5075998;28;20024;-80
2022/03/25 01:19:43;;;;;;;18.10;12.90;;;11.80;89.90;;;;;;5075821;28;20024;-80
2022/03/25 01:22:08;;;;;;;20.70;13.80;;;11.70;89.80;;;;;;5094495;28;20181;-80
2022/03/25 01:24:34;;;;;;;18.90;12.77;;;11.70;89.90;;;;;;5075882;28;20039;-80
2022/03/25 01:27:00;;;;;;;20.52;13.65;;;11.70;90.00;;;;;;5093916;28;20057;-80
2022/03/25 01:29:26;;;;;;;20.60;13.20;;;11.70;90.30;;;;;;5093918;28;20502;-80
2022/03/25 01:31:53;;;;;;;26.08;14.15;;;11.70;90.00;;;;;;5075572;28;20524;-80
2022/03/25 01:34:19;;;;;;;22.15;13.38;;;11.60;89.90;;;;;;5075619;28;20027;-80
2022/03/25 01:36:46;;;;;;;21.17;12.43;;;11.70;90.00;;;;;;5075627;28;20114;-80
2022/03/25 01:39:12;;;;;;;22.80;14.02;;;11.60;90.00;;;;;;5075567;28;20032;-80
2022/03/25 01:41:38;;;;;;;19.23;12.82;;;11.70;90.00;;;;;;5093791;28;20037;-80
2022/03/25 01:44:04;;;;;;;18.80;13.07;;;11.60;90.00;;;;;;5093741;28;20521;-80
2022/03/25 01:46:30;;;;;;;20.98;12.85;;;11.60;90.00;;;;;;5093797;28;20137;-80
2022/03/25 01:48:56;;;;;;;16.98;12.38;;;11.60;90.00;;;;;;5093595;28;20059;-80
2022/03/25 01:51:38;;;;;;;20.90;12.38;;;11.60;90.00;;;;;;5075327;28;20067;-80
2022/03/25 01:54:09;;;;;;;18.23;12.55;;;11.60;90.10;;;;;;5093747;28;20099;-80
2022/03/25 01:56:35;;;;;;;21.95;12.80;;;11.60;90.10;;;;;;5075464;28;20020;-80
2022/03/25 01:59:01;;;;;;;19.67;12.82;;;11.60;90.10;;;;;;5093613;28;20028;-80
2022/03/25 02:01:27;;;;;;;19.42;12.13;;;11.50;90.10;;;;;;5075348;28;20407;-80
2022/03/25 02:03:53;;;;;;;16.50;12.20;;;11.50;90.10;;;;;;5075215;28;20034;-80
2022/03/25 02:06:19;;;;;;;20.83;13.05;;;11.50;90.10;;;;;;5075304;28;20028;-80
2022/03/25 02:08:45;;;;;;;16.77;12.23;;;11.50;90.10;;;;;;5075103;28;20391;-80
2022/03/25 02:11:11;;;;;;;20.58;12.38;;;11.50;90.10;;;;;;5093449;28;20103;-80
2022/03/25 02:13:40;;;;;;;20.70;12.30;;;11.50;90.10;;;;;;5075131;28;20024;-80
2022/03/25 02:16:05;;;;;;;17.98;13.25;;;11.50;90.20;;;;;;5075056;28;20020;-80
2022/03/25 02:18:31;;;;;;;15.82;11.75;;;11.40;90.10;;;;;;5075015;28;20026;-80
2022/03/25 02:20:57;;;;;;;20.02;12.48;;;11.40;90.20;;;;;;5093085;28;20395;-80
2022/03/25 02:23:23;;;;;;;19.27;12.80;;;11.40;90.20;;;;;;5093106;28;20419;-80
2022/03/25 02:25:51;;;;;;;21.63;12.25;;;11.40;90.20;;;;;;5075004;28;20024;-79
2022/03/25 02:28:17;;;;;;;21.98;12.70;;;11.40;90.20;;;;;;5074950;28;20077;-79
2022/03/25 02:30:43;;;;;;;21.10;11.60;;;11.40;90.20;;;;;;5092937;28;20028;-80
2022/03/25 02:33:09;;;;;;;21.35;13.18;;;11.40;90.20;;;;;;5093114;28;20027;-79
2022/03/25 02:35:46;;;;;;;18.73;12.50;;;11.40;90.20;;;;;;5093001;28;20020;-79
2022/03/25 02:38:13;;;;;;;19.27;13.40;;;11.40;90.30;;;;;;5093020;28;20020;-79
2022/03/25 02:40:39;;;;;;;19.17;12.73;;;11.30;90.20;;;;;;5092984;28;20024;-79
2022/03/25 02:43:05;;;;;;;19.88;12.95;;;11.30;90.30;;;;;;5074883;28;20051;-79
2022/03/25 02:45:31;;;;;;;20.17;12.00;;;11.30;90.30;;;;;;5074853;28;20395;-79
2022/03/25 02:47:58;;;;;;;19.83;12.55;;;11.30;90.30;;;;;;5092900;28;20028;-79
2022/03/25 02:50:25;;;;;;;19.48;11.90;;;11.30;90.30;;;;;;5074889;28;20111;-79
2022/03/25 02:52:50;;;;;;;20.90;13.05;;;11.30;90.30;;;;;;5074719;28;20115;-79
2022/03/25 02:55:16;;;;;;;18.60;13.00;;;11.30;90.30;;;;;;5074818;28;20120;-80
2022/03/25 02:57:42;;;;;;;20.77;13.35;;;11.20;90.30;;;;;;5074869;28;20024;-79
2022/03/25 03:00:09;;;;;;;16.73;11.88;;;11.20;90.30;;;;;;5092860;28;20044;-80
2022/03/25 03:02:38;;;;;;;19.58;13.13;;;11.30;90.30;;;;;;5074567;28;20031;-79
2022/03/25 03:05:06;;;;;;;19.63;12.38;;;11.20;90.30;;;;;;5074900;28;20028;-79
2022/03/25 03:07:32;;;;;;;19.15;12.38;;;11.20;90.30;;;;;;5078452;28;20028;-79
2022/03/25 03:09:58;;;;;;;18.55;11.57;;;11.20;90.30;;;;;;5078430;28;20034;-79
2022/03/25 03:12:25;;;;;;;19.30;12.23;;;11.20;90.30;;;;;;5078293;28;20032;-79
2022/03/25 03:14:51;;;;;;;18.17;12.98;;;11.20;90.40;;;;;;5078375;28;20024;-79
2022/03/25 03:17:16;;;;;;;19.05;13.18;;;11.20;90.40;;;;;;5078321;28;20020;-79
2022/03/25 03:19:42;;;;;;;15.93;11.40;;;11.10;90.30;;;;;;5078175;28;20471;-79
2022/03/25 03:22:08;;;;;;;19.95;11.98;;;11.10;90.40;;;;;;5078076;28;20063;-79
2022/03/25 03:24:33;;;;;;;19.95;12.52;;;11.10;90.40;;;;;;5096384;28;20095;-80
2022/03/25 03:26:59;;;;;;;20.50;13.02;;;11.10;90.40;;;;;;5078205;28;20031;-79
2022/03/25 03:29:25;;;;;;;19.75;13.30;;;11.10;90.40;;;;;;5078052;28;20031;-79
2022/03/25 03:31:51;;;;;;;17.35;11.40;;;11.10;90.40;;;;;;5077991;28;20491;-79
2022/03/25 03:34:17;;;;;;;17.48;12.27;;;11.10;90.50;;;;;;5078037;28;20020;-79
2022/03/25 03:36:42;;;;;;;17.55;12.05;;;11.10;90.50;;;;;;5096134;28;20017;-80
2022/03/25 03:39:08;;;;;;;16.25;11.63;;;11.10;90.50;;;;;;5077930;28;20527;-79
2022/03/25 03:41:34;;;;;;;17.17;11.98;;;11.00;90.40;;;;;;5078099;28;20115;-79
2022/03/25 03:44:00;;;;;;;16.45;12.45;;;11.00;90.40;;;;;;5096253;28;20081;-79
2022/03/25 03:46:26;;;;;;;20.73;12.93;;;11.00;90.40;;;;;;5077821;28;20031;-79
2022/03/25 03:48:51;;;;;;;16.75;11.73;;;11.00;90.40;;;;;;5095917;28;20360;-79
2022/03/25 03:51:17;;;;;;;18.67;12.40;;;11.00;90.50;;;;;;5096044;28;20032;-79
2022/03/25 03:53:43;;;;;;;19.08;12.30;;;11.00;90.50;;;;;;5095799;28;20016;-79
2022/03/25 03:56:08;;;;;;;18.67;12.23;;;11.00;90.50;;;;;;5077559;28;20518;-79
2022/03/25 03:58:34;;;;;;;18.17;12.05;;;11.00;90.50;;;;;;5077530;28;20020;-79
2022/03/25 04:01:00;;;;;;;16.48;11.70;;;11.00;90.50;;;;;;5077572;28;20020;-79
2022/03/25 04:03:26;;;;;;;19.05;12.15;;;10.90;90.50;;;;;;5077562;28;20020;-79
2022/03/25 04:05:52;;;;;;;19.13;12.20;;;10.90;90.50;;;;;;5095500;28;20472;-80
2022/03/25 04:08:18;;;;;;;17.98;12.55;;;10.90;90.50;;;;;;5077237;28;20023;-80
2022/03/25 04:10:43;;;;;;;17.88;12.13;;;10.90;90.50;;;;;;5077262;28;20028;-79
2022/03/25 04:13:09;;;;;;;22.35;12.18;;;10.90;90.50;;;;;;5077257;28;20051;-79
2022/03/25 04:15:35;;;;;;;17.23;12.55;;;10.90;90.50;;;;;;5077232;28;20024;-79
2022/03/25 04:18:00;;;;;;;16.80;12.48;;;10.90;90.90;;;;;;5076754;28;20111;-79
2022/03/25 04:20:27;;;;;;;19.20;11.55;;;10.80;90.50;;;;;;5094922;28;20036;-79
2022/03/25 04:22:53;;;;;;;19.70;12.32;;;10.80;90.50;;;;;;5095209;28;20031;-79
2022/03/25 04:25:18;;;;;;;18.55;12.75;;;10.80;90.50;;;;;;5095164;28;20020;-79
2022/03/25 04:27:54;;;;;;;22.13;12.32;;;10.80;90.50;;;;;;5076960;28;20053;-79
2022/03/25 04:30:22;;;;;;;17.52;12.55;;;10.80;90.60;;;;;;5076886;28;20024;-80
2022/03/25 04:32:48;;;;;;;18.02;12.63;;;10.80;90.60;;;;;;5095038;28;20034;-79
2022/03/25 04:35:14;;;;;;;19.15;12.45;;;10.80;90.60;;;;;;5094970;28;20024;-79
2022/03/25 04:37:41;;;;;;;22.42;12.82;;;10.80;90.60;;;;;;5076839;28;20024;-80
2022/03/25 04:40:09;;;;;;;19.27;12.35;;;10.70;90.60;;;;;;5076772;28;20020;-80
2022/03/25 04:42:35;;;;;;;19.23;13.30;;;10.70;90.60;;;;;;5077003;28;20069;-79
2022/03/25 04:45:00;;;;;;;18.98;12.35;;;10.70;90.60;;;;;;5094794;28;20110;-80
2022/03/25 04:47:26;;;;;;;20.98;12.80;;;10.70;90.60;;;;;;5076745;28;20115;-80
2022/03/25 04:49:51;;;;;;;23.98;12.95;;;10.70;90.60;;;;;;5076588;28;20024;-80
2022/03/25 04:52:17;;;;;;;18.13;12.52;;;10.70;90.60;;;;;;5094647;28;20364;-80
2022/03/25 04:54:43;;;;;;;18.75;12.75;;;10.70;90.60;;;;;;5094687;28;20467;-79
2022/03/25 04:57:09;;;;;;;17.75;12.75;;;10.70;90.60;;;;;;5094880;28;20020;-79
2022/03/25 04:59:34;;;;;;;18.48;13.70;;;10.60;90.60;;;;;;5076475;28;20470;-79
2022/03/25 05:02:01;;;;;;;20.00;13.13;;;10.60;90.60;;;;;;5076185;28;20063;-79
2022/03/25 05:04:27;;;;;;;20.88;12.80;;;10.60;90.60;;;;;;5076314;28;20078;-79
2022/03/25 05:06:53;;;;;;;21.55;13.05;;;10.60;90.60;;;;;;5076289;28;20447;-79
2022/03/25 05:09:19;;;;;;;20.42;13.27;;;10.60;90.60;;;;;;5094262;28;20052;-79
2022/03/25 05:11:45;;;;;;;19.50;12.70;;;10.60;90.70;;;;;;5076007;28;20024;-79
2022/03/25 05:14:10;;;;;;;21.50;13.30;;;10.60;90.70;;;;;;5094464;28;20539;-79
2022/03/25 05:16:37;;;;;;;18.27;13.13;;;10.60;90.70;;;;;;5094152;28;20028;-79
2022/03/25 05:19:03;;;;;;;19.88;12.45;;;10.60;90.70;;;;;;5075911;28;20077;-79
2022/03/25 05:21:29;;;;;;;17.35;12.57;;;10.60;90.70;;;;;;5094011;28;20048;-80
2022/03/25 05:23:55;;;;;;;17.30;13.13;;;10.50;90.60;;;;;;5075841;28;20027;-79
2022/03/25 05:26:20;;;;;;;19.75;13.32;;;10.50;90.70;;;;;;5094011;28;20024;-79
2022/03/25 05:28:46;;;;;;;20.20;13.40;;;10.50;90.70;;;;;;5075071;28;20032;-79
2022/03/25 05:31:12;;;;;;;20.13;13.70;;;10.50;90.70;;;;;;5075672;28;20089;-79
2022/03/25 05:33:38;;;;;;;21.33;13.70;;;10.50;90.70;;;;;;5094116;28;20120;-78
2022/03/25 05:36:04;;;;;;;20.00;13.43;;;10.50;90.70;;;;;;5093838;28;20486;-79
2022/03/25 05:38:30;;;;;;;22.48;13.55;;;10.50;90.70;;;;;;5075647;28;20479;-79
2022/03/25 05:40:56;;;;;;;22.30;13.38;;;10.50;90.70;;;;;;5075512;28;20099;-79
2022/03/25 05:43:22;;;;;;;19.77;12.98;;;10.50;90.70;;;;;;5075441;28;20487;-79
2022/03/25 05:45:48;;;;;;;18.77;13.00;;;10.50;90.70;;;;;;5075550;28;20024;-79
2022/03/25 05:48:13;;;;;;;20.88;14.10;;;10.50;90.70;;;;;;5093645;28;20016;-79
2022/03/25 05:50:39;;;;;;;22.52;13.20;;;10.50;90.70;;;;;;5075488;28;20024;-78
2022/03/25 05:53:05;;;;;;;19.73;12.98;;;10.50;90.70;;;;;;5075309;28;20028;-79
2022/03/25 05:55:32;;;;;;;20.98;13.90;;;10.50;90.70;;;;;;5075303;28;20024;-80
2022/03/25 05:57:58;;;;;;;20.17;13.10;;;10.50;90.70;;;;;;5093457;28;20065;-79
2022/03/25 06:00:24;;;;;;;19.65;12.63;;;10.50;90.70;;;;;;5075321;28;20418;-79
2022/03/25 06:02:49;;;;;;;19.10;13.15;;;10.50;90.80;;;;;;5093456;28;20475;-79
2022/03/25 06:05:15;;;;;;;19.40;13.57;;;10.50;90.70;;;;;;5093357;28;20034;-79
2022/03/25 06:07:43;;;;;;;20.70;13.43;;;10.50;90.80;;;;;;5093254;28;20072;-79
2022/03/25 06:10:10;;;;;;;22.55;13.85;;;10.50;90.80;;;;;;5075170;28;20518;-79
2022/03/25 06:12:37;;;;;;;21.27;13.63;;;10.50;90.80;;;;;;5093145;28;20024;-79
2022/03/25 06:15:04;;;;;;;20.60;13.40;;;10.60;90.80;;;;;;5093191;28;20024;-79
2022/03/25 06:17:29;;;;;;;20.33;12.63;;;10.60;90.80;;;;;;5074999;28;20024;-79
2022/03/25 06:19:55;;;;;;;18.85;12.45;;;10.50;91.10;;;;;;5074783;28;20031;-79
2022/03/25 06:22:24;;;;;;;19.52;13.48;;;10.60;90.80;;;;;;5093434;28;20040;-79
2022/03/25 06:24:53;;;;;;;25.90;12.80;;;10.60;90.80;;;;;;5093213;28;20077;-79
2022/03/25 06:27:19;;;;;;;24.20;13.40;;;10.60;90.70;;;;;;5093475;28;20024;-79
2022/03/25 06:29:45;;;;;;;19.00;13.20;;;10.60;90.70;;;;;;5075003;28;20024;-79
2022/03/25 06:32:11;;;;;;;20.48;13.88;;;10.60;90.70;;;;;;5074929;28;20496;-80
2022/03/25 06:34:36;;;;;;;19.48;12.55;;;10.70;90.70;;;;;;5093105;28;20091;-79
2022/03/25 06:37:03;;;;;;;18.48;12.73;;;10.70;90.70;;;;;;5093018;28;20017;-79
2022/03/25 06:39:29;;;;;;;21.58;12.20;;;10.70;90.70;;;;;;5075949;28;20398;-79
2022/03/25 06:41:55;;;;;;;18.67;12.40;;;10.80;90.70;;;;;;5079005;28;20024;-79
2022/03/25 06:44:21;;;;;;;19.48;12.23;;;10.80;90.70;;;;;;5079001;28;20032;-79
2022/03/25 06:46:46;;;;;;;18.23;12.63;;;10.80;90.70;;;;;;5097108;28;20053;-79
2022/03/25 06:49:12;;;;;;;17.10;11.90;;;10.90;90.70;;;;;;5078721;28;20028;-79
2022/03/25 06:51:39;;;;;;;18.60;12.25;;;10.90;90.70;;;;;;5078717;28;20123;-79
2022/03/25 06:54:05;;;;;;;18.60;12.45;;;10.90;90.60;;;;;;5078791;28;20446;-80
2022/03/25 06:56:34;;;;;;;18.42;12.98;;;11.00;90.70;;;;;;5078634;28;20028;-79
2022/03/25 06:59:01;;;;;;;20.33;12.93;;;11.00;90.60;;;;;;5096862;28;20016;-79
2022/03/25 07:01:27;;;;;;;19.50;12.15;;;11.10;90.60;;;;;;5078619;28;20034;-79
2022/03/25 07:03:53;;;;;;;20.17;12.95;;;11.10;90.60;;;;;;5078550;28;20027;-79
2022/03/25 07:06:24;;;;;;;15.98;11.98;;;11.10;90.60;;;;;;5078509;28;20044;-79
2022/03/25 07:08:55;;;;;;;19.05;12.35;;;11.20;90.60;;;;;;5078508;28;20028;-80
2022/03/25 07:11:22;;;;;;;18.38;12.30;;;11.20;90.60;;;;;;5078357;28;20101;-79
2022/03/25 07:13:48;;;;;;;16.63;12.85;;;11.20;90.60;;;;;;5078704;28;20495;-79
2022/03/25 07:16:14;;;;;;;21.25;12.95;;;11.30;90.60;;;;;;5078453;28;20066;-79
2022/03/25 07:18:40;;;;;;;16.20;12.90;;;11.30;90.60;;;;;;5078187;28;20020;-79
2022/03/25 07:21:06;;;;;;;17.50;11.75;;;11.40;90.60;;;;;;5096247;28;20503;-79
2022/03/25 07:23:32;;;;;;;21.77;12.55;;;11.40;90.60;;;;;;5096334;28;20036;-79
2022/03/25 07:25:57;;;;;;;17.83;11.73;;;11.50;90.60;;;;;;5078117;28;20376;-79
2022/03/25 07:28:23;;;;;;;17.73;11.98;;;11.50;90.60;;;;;;5078100;28;20016;-79
2022/03/25 07:30:49;;;;;;;18.88;12.25;;;11.50;90.60;;;;;;5078317;28;20085;-79
2022/03/25 07:33:15;;;;;;;17.23;12.05;;;11.60;90.60;;;;;;5096130;28;20063;-79
2022/03/25 07:35:41;;;;;;;18.05;11.48;;;11.60;90.60;;;;;;5077940;28;20475;-79
2022/03/25 07:38:07;;;;;;;16.85;11.15;;;11.60;90.60;;;;;;5096077;28;20467;-79
2022/03/25 07:40:33;;;;;;;17.70;11.57;;;11.70;90.60;;;;;;5077807;28;20016;-79
2022/03/25 07:42:59;;;;;;;16.35;10.98;;;11.70;90.60;;;;;;5095965;28;20070;-79
2022/03/25 07:45:25;;;;;;;15.35;10.95;;;11.80;90.70;;;;;;5095928;28;20028;-80
2022/03/25 07:47:51;;;;;;;15.90;11.05;;;11.80;90.70;;;;;;5077718;28;20340;-79
2022/03/25 07:50:20;;;;;;;15.85;10.65;;;11.90;90.70;;;;;;5077683;28;20028;-78
2022/03/25 07:52:46;;;;;;;15.93;11.27;;;11.90;90.70;;;;;;5076688;28;20552;-79
2022/03/25 07:55:15;;;;;;;18.90;10.70;;;11.90;90.70;;;;;;5095655;28;20383;-79
2022/03/25 07:57:40;;;;;;;14.90;9.85;;;12.00;90.70;;;;;;5095653;28;20020;-79
2022/03/25 08:00:11;;;;;;;16.08;11.05;;;12.10;90.70;;;;;;5077421;28;20031;-79
2022/03/25 08:02:40;;;;;;;15.93;10.82;;;12.00;90.60;;;;;;5096094;28;20024;-80
2022/03/25 08:05:09;;;;;;;15.35;10.85;;;12.10;90.60;;;;;;5095449;28;20020;-79
2022/03/25 08:07:55;;;;;;;16.77;11.73;;;12.10;90.60;;;;;;5077312;28;20024;-79
2022/03/25 08:10:26;;;;;;;16.48;9.95;;;12.20;90.70;;;;;;5077359;28;20135;-79
2022/03/25 08:12:53;;;;;;;14.25;10.27;;;12.20;90.50;;;;;;5095819;28;20384;-78
2022/03/25 08:15:20;;;;;;;16.80;10.80;;;12.30;90.50;;;;;;5095617;28;20016;-79
2022/03/25 08:17:54;;;;;;;16.38;9.88;;;12.30;90.50;;;;;;5095549;28;20080;-79
2022/03/25 08:20:22;;;;;;;14.82;9.00;;;12.40;90.40;;;;;;5095286;28;20116;-79
2022/03/25 08:22:48;;;;;;;14.35;9.70;;;12.40;90.30;;;;;;5095486;28;20063;-79
2022/03/25 08:28:01;;;;;;;13.65;9.05;;;12.50;90.20;;;;;;5095999;28;20077;-79
2022/03/25 08:30:31;;;;;;;16.13;9.32;;;12.50;90.20;;;;;;5077213;28;20032;-79
2022/03/25 08:32:57;;;;;;;15.70;9.73;;;12.50;90.20;;;;;;5095534;28;20039;-79
2022/03/25 08:35:26;;;;;;;18.73;11.13;;;12.60;90.20;;;;;;5095258;28;20061;-79
2022/03/25 08:37:53;;;;;;;16.23;10.15;;;12.60;90.20;;;;;;5076931;28;20028;-79
2022/03/25 08:40:23;;;;;;;15.70;9.82;;;12.70;90.10;;;;;;5077004;28;20031;-79
2022/03/25 08:42:49;;;;;;;14.55;9.73;;;12.70;90.00;;;;;;5076932;28;20399;-79
2022/03/25 08:45:16;;;;;;;14.50;10.02;;;12.70;89.90;;;;;;5094573;28;20016;-79
2022/03/25 08:47:43;;;;;;;15.10;10.73;;;12.80;89.90;;;;;;5094595;28;20054;-79
2022/03/25 08:50:12;;;;;;;18.65;9.95;;;12.80;89.70;;;;;;5076471;28;20051;-79
2022/03/25 08:52:42;;;;;;;17.60;10.38;;;12.80;89.60;;;;;;5076046;28;20027;-79
2022/03/25 08:55:09;;;;;;;16.67;10.68;;;12.90;89.50;;;;;;5094273;28;20020;-79
2022/03/25 08:57:36;;;;;;;17.52;10.48;;;12.90;89.40;;;;;;5076105;28;20016;-79
2022/03/25 09:00:05;;;;;;;21.42;12.45;;;13.00;89.40;;;;;;5094285;28;20024;-79
2022/03/25 09:02:30;;;;;;;17.92;11.05;;;13.00;89.20;;;;;;5075421;28;20035;-79
2022/03/25 09:04:56;;;;;;;18.08;11.00;;;13.00;89.20;;;;;;5093975;28;20024;-79
2022/03/25 09:07:21;;;;;;;18.70;11.75;;;13.00;89.00;;;;;;5094107;28;20369;-79
2022/03/25 09:09:47;;;;;;;18.17;11.55;;;13.10;89.00;;;;;;5094023;28;20110;-79
2022/03/25 09:12:13;;;;;;;16.85;11.02;;;13.10;88.80;;;;;;5075869;28;20134;-79
2022/03/25 09:14:39;;;;;;;18.95;11.63;;;13.20;88.60;;;;;;5075764;28;20501;-79
2022/03/25 09:17:05;;;;;;;18.35;11.23;;;13.20;88.50;;;;;;5093894;28;20066;-80
2022/03/25 09:19:31;;;;;;;20.58;12.50;;;13.20;88.50;;;;;;5075635;28;20062;-79
2022/03/25 09:21:57;;;;;;;19.70;11.45;;;13.20;88.30;;;;;;5075409;28;20051;-79
2022/03/25 09:24:23;;;;;;;18.73;11.90;;;13.30;88.20;;;;;;5075573;28;20028;-79
2022/03/25 09:26:49;;;;;;;18.90;12.10;;;13.30;88.10;;;;;;5075493;28;20024;-79
2022/03/25 09:29:14;;;;;;;21.00;12.30;;;13.30;88.00;;;;;;5093947;28;20020;-79
2022/03/25 09:31:42;;;;;;;18.08;11.52;;;13.40;87.90;;;;;;5093668;28;20114;-79
2022/03/25 09:36:53;;;;;;;19.33;12.82;;;13.40;87.80;;;;;;5093830;28;20035;-79
2022/03/25 09:39:19;;;;;;;19.30;12.00;;;13.50;87.90;;;;;;5093749;28;20020;-79
2022/03/25 09:41:46;;;;;;;19.42;12.60;;;13.50;87.90;;;;;;5075312;28;20151;-79
2022/03/25 09:44:15;;;;;;;19.70;13.20;;;13.60;87.80;;;;;;5075524;28;20069;-79
2022/03/25 09:46:42;;;;;;;20.48;13.25;;;13.60;87.70;;;;;;5075194;28;20029;-79
2022/03/25 09:49:09;;;;;;;19.92;13.25;;;13.60;87.60;;;;;;5075154;28;20024;-79
2022/03/25 09:51:36;;;;;;;24.45;13.93;;;13.60;87.60;;;;;;5075158;28;20032;-78
2022/03/25 09:54:03;;;;;;;22.40;14.07;;;13.70;87.50;;;;;;5075142;28;20025;-79
2022/03/25 09:56:29;;;;;;;20.30;13.38;;;13.70;87.40;;;;;;5093332;28;20107;-79
2022/03/25 09:58:54;;;;;;;27.92;14.65;;;13.70;87.50;;;;;;5075615;28;20020;-79
2022/03/25 10:01:20;;;;;;;21.98;14.15;;;13.80;87.70;;;;;;5075017;28;20120;-79
2022/03/25 10:03:46;;;;;;;21.92;13.38;;;13.80;87.60;;;;;;5075028;28;20055;-79
2022/03/25 10:06:14;;;;;;;29.27;14.27;;;13.80;87.60;;;;;;5074900;28;20198;-79
2022/03/25 10:08:40;;;;;;;25.13;13.98;;;13.90;87.40;;;;;;5074898;28;20032;-79
2022/03/25 10:11:21;;;;;;;23.70;14.27;;;13.90;87.30;;;;;;5074860;28;20456;-79
2022/03/25 10:13:49;;;;;;;22.65;14.00;;;13.90;87.10;;;;;;5092703;28;20020;-79
2022/03/25 10:16:31;;;;;;;24.08;13.68;;;14.00;87.10;;;;;;5092915;28;20031;-79
2022/03/25 10:18:58;;;;;;;22.05;13.70;;;14.00;87.10;;;;;;5074696;28;20048;-79
2022/03/25 10:21:24;;;;;;;23.75;13.32;;;14.00;87.20;;;;;;5071238;28;20403;-79
2022/03/25 10:23:50;;;;;;;21.00;13.35;;;14.00;87.10;;;;;;5072677;28;20031;-79
2022/03/25 10:26:16;;;;;;;21.50;13.13;;;14.00;86.90;;;;;;5072736;28;20024;-78
2022/03/25 10:28:44;;;;;;;24.17;13.50;;;14.00;86.90;;;;;;5071408;28;20116;-79
2022/03/25 10:31:18;;;;;;;26.55;13.50;;;14.00;86.60;;;;;;5072617;28;20070;-79
2022/03/25 10:33:50;;;;;;;21.92;13.85;;;14.10;86.00;;;;;;5072744;28;20043;-79
2022/03/25 10:36:21;;;;;;;22.67;13.63;;;14.10;85.90;;;;;;5071356;28;20021;-79
2022/03/25 10:38:46;;;;;;;23.10;14.85;;;14.10;85.30;;;;;;5071328;28;20080;-79
2022/03/25 10:41:18;;;;;;;23.02;13.35;;;14.10;85.30;;;;;;5072519;28;20099;-79
2022/03/25 10:44:04;;;;;;;25.65;13.85;;;14.10;85.50;;;;;;5072558;28;20503;-79
2022/03/25 10:46:36;;;;;;;24.08;13.60;;;14.20;85.50;;;;;;5071275;28;20115;-79
2022/03/25 10:49:13;;;;;;;21.40;14.40;;;14.20;85.70;;;;;;5071128;28;20500;-79
2022/03/25 10:51:40;;;;;;;23.00;13.65;;;14.20;85.40;;;;;;5071091;28;20115;-79
2022/03/25 10:54:08;;;;;;;19.55;13.40;;;14.20;85.30;;;;;;5071159;28;20025;-79
2022/03/25 10:56:48;;;;;;;22.52;14.55;;;14.20;85.60;;;;;;5071071;28;20032;-80
2022/03/25 10:59:25;;;;;;;25.90;14.73;;;14.20;85.10;;;;;;5071087;28;20024;-80
2022/03/25 11:01:52;;;;;;;19.30;13.18;;;14.20;85.20;;;;;;5071093;28;20491;-79
2022/03/25 11:04:18;;;;;;;24.25;14.55;;;14.30;85.30;;;;;;5071128;28;20024;-80
2022/03/25 11:06:45;;;;;;;20.08;13.30;;;14.30;85.30;;;;;;5072394;28;20028;-80
2022/03/25 11:09:13;;;;;;;28.85;15.50;;;14.30;85.10;;;;;;5070898;28;20021;-80
2022/03/25 11:11:45;;;;;;;21.70;13.73;;;14.40;84.80;;;;;;5070902;28;20025;-80
2022/03/25 11:14:11;;;;;;;26.52;14.63;;;14.40;85.00;;;;;;5072302;28;20032;-80
2022/03/25 11:16:40;;;;;;;26.98;14.10;;;14.50;84.70;;;;;;5072293;28;20027;-80
2022/03/25 11:19:10;;;;;;;26.35;14.68;;;14.40;84.40;;;;;;5070837;28;20115;-80
2022/03/25 11:21:42;;;;;;;23.13;14.35;;;14.40;84.40;;;;;;5086527;28;20051;-80
2022/03/25 11:24:24;;;;;;;23.73;14.75;;;14.50;84.70;;;;;;5074149;28;20028;-80
2022/03/25 11:26:52;;;;;;;22.95;13.65;;;14.50;84.50;;;;;;5075665;28;20060;-80
2022/03/25 11:29:22;;;;;;;22.65;13.98;;;14.60;84.40;;;;;;5077847;28;20399;-80
2022/03/25 11:32:11;;;;;;;23.85;14.55;;;14.60;84.40;;;;;;5095936;28;20441;-80
2022/03/25 11:34:55;;;;;;;20.55;14.25;;;14.50;84.10;;;;;;5077827;28;20114;-80
2022/03/25 11:37:28;;;;;;;24.15;16.63;;;14.60;84.30;;;;;;5077754;28;20024;-80
2022/03/25 11:40:12;;;;;;;23.60;14.57;;;14.60;83.80;;;;;;5077659;28;20114;-80
2022/03/25 11:42:44;;;;;;;24.48;15.27;;;14.60;84.00;;;;;;5077549;28;20024;-80
2022/03/25 11:45:29;;;;;;;23.15;14.05;;;14.60;83.90;;;;;;5095788;28;20403;-80
2022/03/25 11:47:57;;;;;;;24.50;15.40;;;14.60;83.80;;;;;;5095790;28;20027;-80
2022/03/25 11:50:30;;;;;;;23.17;15.57;;;14.60;83.90;;;;;;5077462;28;20033;-80
2022/03/25 11:52:57;;;;;;;22.33;14.63;;;14.60;83.80;;;;;;5077358;28;20028;-80
2022/03/25 11:55:23;;;;;;;19.45;13.90;;;14.60;83.70;;;;;;5095808;28;20020;-80
2022/03/25 11:57:49;;;;;;;20.73;14.52;;;14.70;83.70;;;;;;5095793;28;20027;-80
2022/03/25 12:00:26;;;;;;;19.20;13.88;;;14.70;83.60;;;;;;5077238;28;20024;-80
2022/03/25 12:03:00;;;;;;;25.85;14.55;;;14.70;83.70;;;;;;5095430;28;20024;-80
2022/03/25 12:05:26;;;;;;;20.90;13.95;;;14.70;83.50;;;;;;5077356;28;20122;-80
2022/03/25 12:08:31;;;;;;;20.75;15.40;;;14.70;83.80;;;;;;5095340;28;20051;-80
2022/03/25 12:10:59;;;;;;;23.45;15.05;;;14.70;83.30;;;;;;5095333;28;20161;-80
2022/03/25 12:13:51;;;;;;;26.05;14.82;;;14.80;83.40;;;;;;5077024;28;20491;-80
2022/03/25 12:16:44;;;;;;;23.27;15.32;;;14.80;83.40;;;;;;5076997;28;20024;-83
2022/03/25 12:19:28;;;;;;;28.20;16.25;;;14.80;83.30;;;;;;5076828;28;20047;-80
2022/03/25 12:22:03;;;;;;;18.95;13.95;;;14.80;83.00;;;;;;5076795;28;20051;-80
2022/03/25 12:24:31;;;;;;;27.23;14.57;;;14.80;83.00;;;;;;5094918;28;20024;-80
2022/03/25 12:27:06;;;;;;;24.17;14.25;;;14.90;82.70;;;;;;5076657;28;20065;-80
2022/03/25 12:29:34;;;;;;;20.40;14.15;;;14.90;82.50;;;;;;5076703;28;20020;-79
2022/03/25 12:32:10;;;;;;;19.70;13.55;;;14.90;82.40;;;;;;5094868;28;20472;-79
2022/03/25 12:35:00;;;;;;;24.67;14.05;;;14.90;81.80;;;;;;5095140;28;20468;-80
2022/03/25 12:37:35;;;;;;;19.00;14.20;;;15.00;82.10;;;;;;5076381;28;20475;-80